createdAt,value
2018-02-27T00:01:09.689Z,99577.52
2018-02-27T00:03:37.275Z,99576.71
2018-02-27T00:06:04.837Z,99571.30
2018-02-27T00:08:32.416Z,99565.66
2018-02-27T00:10:59.978Z,99560.17
2018-02-27T00:13:27.619Z,99564.45
2018-02-27T00:15:55.176Z,99560.03
2018-02-27T00:18:22.746Z,99558.16
2018-02-27T00:20:50.383Z,99556.00
2018-02-27T00:23:17.990Z,99554.80
2018-02-27T00:25:45.566Z,99550.67
2018-02-27T00:28:13.142Z,99540.51
2018-02-27T00:30:40.776Z,99530.28
2018-02-27T00:33:08.338Z,99531.07
2018-02-27T00:35:35.958Z,99539.59
2018-02-27T00:38:03.518Z,99533.23
2018-02-27T00:40:31.082Z,99537.28
2018-02-27T00:42:58.651Z,99530.47
2018-02-27T00:45:26.212Z,99531.00
2018-02-27T00:47:53.843Z,99537.55
2018-02-27T00:50:21.388Z,99530.20
2018-02-27T00:52:49.070Z,99532.60
2018-02-27T00:55:16.691Z,99522.75
2018-02-27T00:57:44.260Z,99523.19
2018-02-27T01:00:11.834Z,99523.64
2018-02-27T01:02:39.451Z,99520.33
2018-02-27T01:05:07.085Z,99521.03
2018-02-27T01:07:34.647Z,99514.95
2018-02-27T01:10:02.224Z,99515.45
2018-02-27T01:12:29.891Z,99513.55
2018-02-27T01:14:57.559Z,99518.98
2018-02-27T01:17:25.123Z,99503.48
2018-02-27T01:19:52.695Z,99503.48
2018-02-27T01:22:20.342Z,99489.55
2018-02-27T01:24:47.972Z,99485.95
2018-02-27T01:27:15.611Z,99495.70
2018-02-27T01:29:43.156Z,99491.98
2018-02-27T01:32:10.762Z,99493.79
2018-02-27T01:34:39.106Z,99489.06
2018-02-27T01:37:06.663Z,99486.80
2018-02-27T01:39:34.238Z,99485.06
2018-02-27T01:42:01.797Z,99488.35
2018-02-27T01:44:29.367Z,99479.84
2018-02-27T01:46:56.948Z,99474.98
2018-02-27T01:49:24.642Z,99478.85
2018-02-27T01:51:52.317Z,99483.51
2018-02-27T01:54:19.874Z,99477.02
2018-02-27T01:56:47.456Z,99472.03
2018-02-27T01:59:15.087Z,99481.03
2018-02-27T02:01:42.731Z,99468.67
2018-02-27T02:04:10.365Z,99463.23
2018-02-27T02:06:37.953Z,99464.55
2018-02-27T02:09:05.587Z,99454.84
2018-02-27T02:11:33.198Z,99463.62
2018-02-27T02:14:00.763Z,99463.70
2018-02-27T02:16:28.323Z,99472.25
2018-02-27T02:18:55.893Z,99475.08
2018-02-27T02:21:23.472Z,99463.53
2018-02-27T02:23:51.161Z,99464.24
2018-02-27T02:26:18.823Z,99466.01
2018-02-27T02:28:46.457Z,99468.44
2018-02-27T02:31:14.084Z,99463.98
2018-02-27T02:33:41.643Z,99458.80
2018-02-27T02:36:09.224Z,99454.03
2018-02-27T02:38:36.846Z,99450.06
2018-02-27T02:41:04.433Z,99444.11
2018-02-27T02:43:32.083Z,99444.42
2018-02-27T02:45:59.706Z,99448.52
2018-02-27T02:48:27.272Z,99451.59
2018-02-27T02:50:54.898Z,99445.84
2018-02-27T02:53:22.470Z,99441.36
2018-02-27T02:55:50.027Z,99435.25
2018-02-27T02:58:17.659Z,99436.25
2018-02-27T03:00:45.223Z,99438.45
2018-02-27T03:03:12.800Z,99437.80
2018-02-27T03:05:40.424Z,99438.25
2018-02-27T03:08:08.039Z,99439.57
2018-02-27T03:10:35.608Z,99444.93
2018-02-27T03:13:03.179Z,99446.20
2018-02-27T03:15:30.746Z,99448.36
2018-02-27T03:17:58.379Z,99445.47
2018-02-27T03:20:25.959Z,99439.61
2018-02-27T03:22:53.525Z,99447.97
2018-02-27T03:25:21.188Z,99450.76
2018-02-27T03:27:48.760Z,99448.61
2018-02-27T03:30:16.327Z,99451.41
2018-02-27T03:32:43.959Z,99466.44
2018-02-27T03:35:11.522Z,99475.13
2018-02-27T03:37:39.170Z,99471.17
2018-02-27T03:40:06.742Z,99468.70
2018-02-27T03:42:34.438Z,99476.50
2018-02-27T03:45:02.065Z,99459.98
2018-02-27T03:47:29.634Z,99460.34
2018-02-27T03:49:57.188Z,99472.64
2018-02-27T03:52:24.806Z,99470.61
2018-02-27T03:54:52.453Z,99462.58
2018-02-27T03:57:20.081Z,99458.30
2018-02-27T03:59:47.668Z,99453.30
2018-02-27T04:02:15.294Z,99471.90
2018-02-27T04:04:42.979Z,99464.53
2018-02-27T04:07:10.543Z,99461.39
2018-02-27T04:09:38.102Z,99450.44
2018-02-27T04:12:05.738Z,99447.84
2018-02-27T04:14:33.369Z,99444.78
2018-02-27T04:17:00.935Z,99439.48
2018-02-27T04:19:28.499Z,99431.94
2018-02-27T04:21:56.126Z,99431.80
2018-02-27T04:24:23.691Z,99420.02
2018-02-27T04:26:51.260Z,99422.80
2018-02-27T04:29:18.842Z,99410.84
2018-02-27T04:31:46.400Z,99412.64
2018-02-27T04:34:14.031Z,99409.22
2018-02-27T04:36:41.602Z,99415.95
2018-02-27T04:39:09.298Z,99408.09
2018-02-27T04:41:36.858Z,99405.17
2018-02-27T04:44:04.425Z,99417.83
2018-02-27T04:46:32.003Z,99406.55
2018-02-27T04:48:59.570Z,99419.28
2018-02-27T04:51:27.200Z,99418.75
2018-02-27T04:53:54.770Z,99423.27
2018-02-27T04:56:22.358Z,99425.66
2018-02-27T04:58:49.925Z,99421.22
2018-02-27T05:01:17.571Z,99420.58
2018-02-27T05:03:45.212Z,99414.54
2018-02-27T05:06:12.787Z,99413.59
2018-02-27T05:08:40.378Z,99407.06
2018-02-27T05:11:08.019Z,99390.47
2018-02-27T05:13:35.662Z,99378.69
2018-02-27T05:16:03.255Z,99366.73
2018-02-27T05:18:30.893Z,99359.47
2018-02-27T05:20:58.519Z,99384.70
2018-02-27T05:23:26.144Z,99416.55
2018-02-27T05:25:53.727Z,99418.94
2018-02-27T05:28:21.291Z,99425.11
2018-02-27T05:30:48.862Z,99422.88
2018-02-27T05:33:16.433Z,99420.19
2018-02-27T05:35:44.122Z,99414.91
2018-02-27T05:38:11.683Z,99421.83
2018-02-27T05:40:39.247Z,99412.00
2018-02-27T05:43:06.830Z,99414.59
2018-02-27T05:45:34.464Z,99414.17
2018-02-27T05:48:02.104Z,99419.53
2018-02-27T05:50:29.682Z,99430.76
2018-02-27T05:52:57.285Z,99425.72
2018-02-27T05:55:24.917Z,99429.15
2018-02-27T05:57:52.547Z,99439.19
2018-02-27T06:00:20.138Z,99432.58
2018-02-27T06:02:47.774Z,99434.58
2018-02-27T06:05:15.458Z,99427.77
2018-02-27T06:07:43.026Z,99431.03
2018-02-27T06:10:10.601Z,99421.46
2018-02-27T06:12:38.209Z,99423.54
2018-02-27T06:15:05.844Z,99425.58
2018-02-27T06:17:33.484Z,99427.92
2018-02-27T06:20:01.031Z,99422.57
2018-02-27T06:22:28.608Z,99419.03
2018-02-27T06:24:56.254Z,99419.53
2018-02-27T06:27:23.903Z,99412.24
2018-02-27T06:29:51.466Z,99399.69
2018-02-27T06:32:19.100Z,99403.58
2018-02-27T06:34:46.690Z,99399.64
2018-02-27T06:37:14.282Z,99393.64
2018-02-27T06:39:41.868Z,99393.70
2018-02-27T06:42:09.443Z,99397.15
2018-02-27T06:44:37.131Z,99395.03
2018-02-27T06:47:04.797Z,99401.70
2018-02-27T06:49:32.422Z,99406.25
2018-02-27T06:51:59.989Z,99404.88
2018-02-27T06:54:27.620Z,99403.14
2018-02-27T06:56:55.179Z,99399.21
2018-02-27T06:59:22.742Z,99395.34
2018-02-27T07:01:50.419Z,99402.00
2018-02-27T07:04:18.060Z,99406.03
2018-02-27T07:06:45.622Z,99397.03
2018-02-27T07:09:13.203Z,99397.84
2018-02-27T07:11:40.826Z,99401.97
2018-02-27T07:14:08.406Z,99396.27
2018-02-27T07:16:35.966Z,99401.55
2018-02-27T07:19:03.538Z,99399.77
2018-02-27T07:21:31.103Z,99404.33
2018-02-27T07:23:58.718Z,99413.38
2018-02-27T07:26:26.282Z,99411.17
2018-02-27T07:28:53.843Z,99415.83
2018-02-27T07:31:21.462Z,99415.88
2018-02-27T07:33:49.032Z,99422.42
2018-02-27T07:36:16.619Z,99423.73
2018-02-27T07:38:44.223Z,99418.90
2018-02-27T07:41:11.855Z,99413.82
2018-02-27T07:43:39.422Z,99416.26
2018-02-27T07:46:06.986Z,99418.42
2018-02-27T07:48:34.563Z,99421.18
2018-02-27T07:51:02.195Z,99427.40
2018-02-27T07:53:29.782Z,99434.30
2018-02-27T07:55:57.368Z,99431.31
2018-02-27T07:58:25.050Z,99428.42
2018-02-27T08:00:52.614Z,99429.28
2018-02-27T08:03:20.181Z,99429.94
2018-02-27T08:05:47.766Z,99427.53
2018-02-27T08:08:15.339Z,99422.89
2018-02-27T08:10:42.919Z,99417.56
2018-02-27T08:13:10.559Z,99419.02
2018-02-27T08:15:38.138Z,99422.86
2018-02-27T08:18:05.704Z,99429.38
2018-02-27T08:20:33.344Z,99434.45
2018-02-27T08:23:00.915Z,99430.14
2018-02-27T08:25:28.492Z,99430.39
2018-02-27T08:27:56.071Z,99428.17
2018-02-27T08:30:23.711Z,99424.38
2018-02-27T08:32:51.313Z,99428.59
2018-02-27T08:35:18.891Z,99441.44
2018-02-27T08:37:46.504Z,99445.28
2018-02-27T08:40:14.071Z,99444.23
2018-02-27T08:42:41.640Z,99450.20
2018-02-27T08:45:09.289Z,99462.30
2018-02-27T08:47:36.856Z,99459.00
2018-02-27T08:50:04.495Z,99459.31
2018-02-27T08:52:32.056Z,99458.08
2018-02-27T08:54:59.691Z,99458.67
2018-02-27T08:57:27.282Z,99465.73
2018-02-27T08:59:54.919Z,99468.20
2018-02-27T09:02:22.513Z,99469.02
2018-02-27T09:04:50.074Z,99465.77
2018-02-27T09:07:17.707Z,99465.94
2018-02-27T09:09:45.276Z,99475.61
2018-02-27T09:12:12.855Z,99475.83
2018-02-27T09:14:40.513Z,99471.72
2018-02-27T09:17:08.194Z,99469.06
2018-02-27T09:19:35.764Z,99465.05
2018-02-27T09:22:03.388Z,99466.34
2018-02-27T09:24:31.025Z,99460.55
2018-02-27T09:26:58.647Z,99461.40
2018-02-27T09:29:26.214Z,99468.95
2018-02-27T09:31:53.839Z,99471.34
2018-02-27T09:34:21.468Z,99470.73
2018-02-27T09:36:49.026Z,99467.03
2018-02-27T09:39:16.587Z,99476.17
2018-02-27T09:41:44.158Z,99481.55
2018-02-27T09:44:11.723Z,99481.34
2018-02-27T09:46:39.310Z,99479.76
2018-02-27T09:49:06.945Z,99483.13
2018-02-27T09:51:34.522Z,99485.98
2018-02-27T09:54:02.172Z,99481.00
2018-02-27T09:56:29.793Z,99477.69
2018-02-27T09:58:57.366Z,99476.92
2018-02-27T10:01:24.937Z,99474.48
2018-02-27T10:03:52.509Z,99475.00
2018-02-27T10:06:20.071Z,99455.31
2018-02-27T10:08:47.651Z,99465.68
2018-02-27T10:11:15.280Z,99461.13
2018-02-27T10:13:42.852Z,99469.96
2018-02-27T10:16:10.488Z,99468.47
2018-02-27T10:18:38.055Z,99472.20
2018-02-27T10:21:05.704Z,99481.92
2018-02-27T10:23:33.266Z,99481.27
2018-02-27T10:26:00.875Z,99492.70
2018-02-27T10:28:28.514Z,99488.98
2018-02-27T10:30:56.118Z,99492.83
2018-02-27T10:33:23.832Z,99489.34
2018-02-27T10:35:51.532Z,99497.22
2018-02-27T10:38:19.228Z,99504.00
2018-02-27T10:40:46.836Z,99494.16
2018-02-27T10:43:14.468Z,99504.28
2018-02-27T10:45:42.091Z,99505.41
2018-02-27T10:48:09.702Z,99504.11
2018-02-27T10:50:37.263Z,99509.80
2018-02-27T10:53:04.827Z,99502.45
2018-02-27T10:55:32.398Z,99505.13
2018-02-27T10:57:59.944Z,99504.39
2018-02-27T11:00:33.080Z,99501.17
2018-02-27T11:03:00.643Z,99488.69
2018-02-27T11:05:28.222Z,99496.45
2018-02-27T11:07:55.801Z,99517.52
2018-02-27T11:10:23.434Z,99512.31
2018-02-27T11:12:51.013Z,99511.95
2018-02-27T11:15:18.649Z,99508.80
2018-02-27T11:17:46.308Z,99512.51
2018-02-27T11:20:13.851Z,99512.34
2018-02-27T11:22:41.422Z,99517.34
2018-02-27T11:25:08.986Z,99512.20
2018-02-27T11:27:36.668Z,99507.48
2018-02-27T11:30:04.272Z,99522.14
2018-02-27T11:32:31.883Z,99530.06
2018-02-27T11:34:59.511Z,99525.31
2018-02-27T11:37:27.076Z,99526.05
2018-02-27T11:39:54.664Z,99524.70
2018-02-27T11:42:22.226Z,99533.94
2018-02-27T11:44:49.935Z,99537.11
2018-02-27T11:47:17.555Z,99542.34
2018-02-27T11:49:45.218Z,99542.64
2018-02-27T11:52:12.792Z,99540.64
2018-02-27T11:54:40.350Z,99537.33
2018-02-27T11:57:07.918Z,99534.37
2018-02-27T11:59:35.479Z,99536.31
2018-02-27T12:02:03.108Z,99550.59
2018-02-27T12:04:30.666Z,99543.40
2018-02-27T12:06:58.343Z,99554.52
2018-02-27T12:09:25.917Z,99551.16
2018-02-27T12:11:53.551Z,99559.03
2018-02-27T12:14:21.127Z,99562.70
2018-02-27T12:16:48.699Z,99558.13
2018-02-27T12:19:16.274Z,99550.45
2018-02-27T12:21:43.842Z,99555.02
2018-02-27T12:24:11.474Z,99541.31
2018-02-27T12:26:39.032Z,99538.08
2018-02-27T12:29:06.604Z,99535.14
2018-02-27T12:31:34.238Z,99533.92
2018-02-27T12:34:12.845Z,99522.39
2018-02-27T12:36:40.448Z,99513.25
2018-02-27T12:39:08.075Z,99522.36
2018-02-27T12:41:35.656Z,99531.87
2018-02-27T12:44:03.221Z,99536.87
2018-02-27T12:46:30.839Z,99533.83
2018-02-27T12:48:58.469Z,99540.39
2018-02-27T12:51:26.035Z,99551.48
2018-02-27T12:53:53.644Z,99557.25
2018-02-27T12:56:21.209Z,99572.80
2018-02-27T12:58:48.787Z,99588.39
2018-02-27T13:01:16.447Z,99590.41
2018-02-27T13:03:44.141Z,99603.41
2018-02-27T13:06:12.595Z,99595.91
2018-02-27T13:08:40.176Z,99599.66
2018-02-27T13:11:07.742Z,99607.66
2018-02-27T13:13:35.314Z,99606.50
2018-02-27T13:16:02.902Z,99598.56
2018-02-27T13:18:30.592Z,99604.52
2018-02-27T13:20:58.230Z,99619.80
2018-02-27T13:23:25.806Z,99625.52
2018-02-27T13:25:53.503Z,99622.33
2018-02-27T13:28:21.132Z,99608.64
2018-02-27T13:30:48.932Z,99605.80
2018-02-27T13:33:16.502Z,99619.39
2018-02-27T13:35:44.126Z,99621.61
2018-02-27T13:38:11.767Z,99623.59
2018-02-27T13:40:39.338Z,99623.78
2018-02-27T13:43:06.969Z,99624.09
2018-02-27T13:45:34.583Z,99622.66
2018-02-27T13:48:02.207Z,99616.06
2018-02-27T13:50:29.791Z,99626.28
2018-02-27T13:52:57.359Z,99618.55
2018-02-27T13:55:25.772Z,99614.11
2018-02-27T13:57:53.353Z,99615.03
2018-02-27T14:00:20.979Z,99625.47
2018-02-27T14:02:48.603Z,99627.77
2018-02-27T14:05:16.164Z,99624.56
2018-02-27T14:07:43.746Z,99620.91
2018-02-27T14:10:11.320Z,99615.91
2018-02-27T14:12:38.921Z,99615.25
2018-02-27T14:15:06.489Z,99607.39
2018-02-27T14:17:34.069Z,99616.23
2018-02-27T14:20:01.639Z,99607.64
2018-02-27T14:22:29.211Z,99602.63
2018-02-27T14:24:56.802Z,99614.77
2018-02-27T14:27:24.371Z,99611.61
2018-02-27T14:29:51.936Z,99613.14
2018-02-27T14:32:19.515Z,99616.36
2018-02-27T14:34:47.112Z,99616.34
2018-02-27T14:37:14.690Z,99612.34
2018-02-27T14:39:42.312Z,99623.97
2018-02-27T14:42:09.880Z,99619.30
2018-02-27T14:44:37.438Z,99625.44
2018-02-27T14:47:05.025Z,99631.92
2018-02-27T14:49:32.599Z,99626.88
2018-02-27T14:52:00.194Z,99628.40
2018-02-27T14:54:27.749Z,99632.14
2018-02-27T14:56:55.361Z,99638.24
2018-02-27T14:59:22.927Z,99640.66
2018-02-27T15:01:50.500Z,99646.53
2018-02-27T15:04:18.087Z,99651.78
2018-02-27T15:06:45.695Z,99653.15
2018-02-27T15:09:13.270Z,99648.00
2018-02-27T15:11:40.833Z,99651.89
2018-02-27T15:14:08.417Z,99656.06
2018-02-27T15:16:36.021Z,99656.65
2018-02-27T15:19:03.574Z,99653.66
2018-02-27T15:21:31.165Z,99643.75
2018-02-27T15:23:58.748Z,99647.02
2018-02-27T15:26:26.338Z,99647.52
2018-02-27T15:28:53.896Z,99647.27
2018-02-27T15:31:21.490Z,99642.05
2018-02-27T15:33:49.113Z,99641.30
2018-02-27T15:36:16.725Z,99639.36
2018-02-27T15:38:44.302Z,99634.06
2018-02-27T15:41:11.880Z,99628.86
2018-02-27T15:43:39.469Z,99632.89
2018-02-27T15:46:07.034Z,99638.80
2018-02-27T15:48:34.639Z,99646.72
2018-02-27T15:51:02.250Z,99649.89
2018-02-27T15:53:29.863Z,99652.22
2018-02-27T15:55:57.475Z,99660.23
2018-02-27T15:58:25.066Z,99672.28
2018-02-27T16:00:52.639Z,99686.13
2018-02-27T16:03:20.199Z,99696.24
2018-02-27T16:05:47.777Z,99699.41
2018-02-27T16:08:15.336Z,99700.62
2018-02-27T16:10:42.982Z,99698.27
2018-02-27T16:13:10.565Z,99708.16
2018-02-27T16:15:38.140Z,99711.80
2018-02-27T16:18:05.719Z,99709.55
2018-02-27T16:20:33.315Z,99707.12
2018-02-27T16:23:00.955Z,99710.33
2018-02-27T16:25:28.534Z,99711.20
2018-02-27T16:27:56.121Z,99692.12
2018-02-27T16:30:23.679Z,99673.23
2018-02-27T16:32:51.329Z,99655.03
2018-02-27T16:35:18.894Z,99645.41
2018-02-27T16:37:46.474Z,99631.89
2018-02-27T16:40:14.055Z,99628.03
2018-02-27T16:42:41.622Z,99625.27
2018-02-27T16:45:09.216Z,99624.23
2018-02-27T16:47:36.809Z,99609.56
2018-02-27T16:50:04.419Z,99597.70
2018-02-27T16:52:31.992Z,99595.32
2018-02-27T16:54:59.569Z,99606.33
2018-02-27T16:57:42.860Z,99618.58
2018-02-27T17:00:10.443Z,99646.06
2018-02-27T17:02:38.019Z,99669.41
2018-02-27T17:05:05.591Z,99686.52
2018-02-27T17:07:33.227Z,99686.75
2018-02-27T17:10:00.847Z,99683.64
2018-02-27T17:12:28.424Z,99681.02
2018-02-27T17:14:56.007Z,99660.25
2018-02-27T17:17:23.574Z,99652.97
2018-02-27T17:19:51.191Z,99646.54
2018-02-27T17:22:18.785Z,99640.80
2018-02-27T17:24:46.403Z,99633.97
2018-02-27T17:27:14.026Z,99633.70
2018-02-27T17:29:41.608Z,99623.31
2018-02-27T17:32:09.188Z,99612.25
2018-02-27T17:34:36.755Z,99613.18
2018-02-27T17:37:04.334Z,99612.03
2018-02-27T17:39:31.922Z,99600.44
2018-02-27T17:41:59.503Z,99592.08
2018-02-27T17:44:27.067Z,99579.27
2018-02-27T17:46:54.748Z,99567.17
2018-02-27T17:49:22.338Z,99555.55
2018-02-27T17:51:49.924Z,99546.50
2018-02-27T17:54:17.496Z,99556.12
2018-02-27T17:56:45.064Z,99562.13
2018-02-27T17:59:12.640Z,99554.62
2018-02-27T18:01:40.207Z,99549.55
2018-02-27T18:04:07.828Z,99565.71
2018-02-27T18:06:35.402Z,99581.02
2018-02-27T18:09:03.043Z,99596.00
2018-02-27T18:11:30.619Z,99607.34
2018-02-27T18:13:58.184Z,99600.53
2018-02-27T18:16:25.766Z,99591.45
2018-02-27T18:18:53.323Z,99574.51
2018-02-27T18:21:20.940Z,99563.58
2018-02-27T18:23:48.493Z,99576.83
2018-02-27T18:26:16.148Z,99575.47
2018-02-27T18:28:43.702Z,99579.86
2018-02-27T18:31:11.271Z,99583.75
2018-02-27T18:33:38.849Z,99593.64
2018-02-27T18:36:07.338Z,99586.17
2018-02-27T18:38:34.923Z,99566.97
2018-02-27T18:41:02.512Z,99565.28
2018-02-27T18:43:30.207Z,99561.70
2018-02-27T18:45:57.751Z,99555.85
2018-02-27T18:48:25.315Z,99570.54
2018-02-27T18:50:52.883Z,99568.95
2018-02-27T18:53:20.454Z,99591.56
2018-02-27T18:55:48.038Z,99603.74
2018-02-27T18:58:15.604Z,99596.33
2018-02-27T19:00:43.221Z,99595.48
2018-02-27T19:03:10.806Z,99576.22
2018-02-27T19:05:38.372Z,99574.95
2018-02-27T19:08:05.970Z,99575.61
2018-02-27T19:10:33.539Z,99571.23
2018-02-27T19:13:01.115Z,99560.62
2018-02-27T19:15:28.682Z,99549.16
2018-02-27T19:17:56.277Z,99562.86
2018-02-27T19:20:23.837Z,99574.33
2018-02-27T19:22:51.445Z,99581.56
2018-02-27T19:25:19.015Z,99577.00
2018-02-27T19:27:46.583Z,99578.09
2018-02-27T19:30:14.176Z,99588.39
2018-02-27T19:32:41.749Z,99594.94
2018-02-27T19:35:09.327Z,99596.77
2018-02-27T19:37:36.921Z,99610.55
2018-02-27T19:40:04.534Z,99630.23
2018-02-27T19:42:32.104Z,99624.07
2018-02-27T19:44:59.680Z,99623.20
2018-02-27T19:47:27.268Z,99622.06
2018-02-27T19:49:54.835Z,99621.84
2018-02-27T19:52:22.407Z,99631.39
2018-02-27T19:54:49.970Z,99630.11
2018-02-27T19:57:17.589Z,99627.32
2018-02-27T19:59:45.158Z,99628.39
2018-02-27T20:02:12.719Z,99621.28
2018-02-27T20:04:41.131Z,99627.50
2018-02-27T20:07:08.695Z,99628.27
2018-02-27T20:09:36.267Z,99626.71
2018-02-27T20:12:03.831Z,99630.55
2018-02-27T20:14:31.398Z,99639.02
2018-02-27T20:16:59.023Z,99628.76
2018-02-27T20:19:26.598Z,99614.56
2018-02-27T20:21:54.162Z,99607.58
2018-02-27T20:24:21.779Z,99610.25
2018-02-27T20:26:49.350Z,99595.77
2018-02-27T20:29:21.414Z,99584.30
2018-02-27T20:31:49.027Z,99587.73
2018-02-27T20:34:16.659Z,99583.11
2018-02-27T20:36:44.385Z,99573.38
2018-02-27T20:39:17.522Z,99565.94
2018-02-27T20:41:45.117Z,99548.27
2018-02-27T20:44:12.694Z,99554.59
2018-02-27T20:46:40.258Z,99559.25
2018-02-27T20:49:07.850Z,99571.17
2018-02-27T20:51:35.421Z,99580.30
2018-02-27T20:54:02.996Z,99573.64
2018-02-27T20:56:30.562Z,99568.56
2018-02-27T20:58:58.132Z,99572.45
2018-02-27T21:01:25.703Z,99555.81
2018-02-27T21:03:53.271Z,99538.56
2018-02-27T21:06:20.851Z,99529.11
2018-02-27T21:08:48.414Z,99518.02
2018-02-27T21:11:15.988Z,99508.13
2018-02-27T21:13:43.558Z,99520.17
2018-02-27T21:16:11.165Z,99501.08
2018-02-27T21:18:38.746Z,99506.19
2018-02-27T21:21:06.312Z,99510.16
2018-02-27T21:23:33.871Z,99507.69
2018-02-27T21:26:01.435Z,99501.37
2018-02-27T21:28:29.002Z,99489.17
2018-02-27T21:30:56.569Z,99472.97
2018-02-27T21:33:24.165Z,99472.63
2018-02-27T21:35:51.722Z,99471.94
2018-02-27T21:38:19.290Z,99464.93
2018-02-27T21:40:46.871Z,99467.59
2018-02-27T21:43:14.471Z,99464.40
2018-02-27T21:45:42.061Z,99469.83
2018-02-27T21:48:09.655Z,99470.03
2018-02-27T21:50:37.239Z,99479.41
2018-02-27T21:53:04.809Z,99480.80
2018-02-27T21:55:32.428Z,99482.27
2018-02-27T21:57:59.999Z,99480.19
2018-02-27T22:00:27.572Z,99476.50
2018-02-27T22:02:55.158Z,99481.42
2018-02-27T22:05:22.727Z,99485.47
2018-02-27T22:07:50.302Z,99486.08
2018-02-27T22:10:17.870Z,99481.92
2018-02-27T22:12:45.464Z,99472.38
2018-02-27T22:15:13.027Z,99481.16
2018-02-27T22:17:40.590Z,99492.93
2018-02-27T22:20:08.174Z,99498.59
2018-02-27T22:22:35.766Z,99496.54
2018-02-27T22:25:03.369Z,99506.16
2018-02-27T22:27:30.954Z,99496.63
2018-02-27T22:29:58.558Z,99498.58
2018-02-27T22:32:26.145Z,99496.59
2018-02-27T22:34:53.711Z,99480.50
2018-02-27T22:37:21.299Z,99467.08
2018-02-27T22:39:48.866Z,99461.30
2018-02-27T22:42:16.439Z,99455.69
2018-02-27T22:44:44.002Z,99452.11
2018-02-27T22:47:11.580Z,99441.19
2018-02-27T22:49:39.135Z,99441.19
2018-02-27T22:52:06.738Z,99435.77
2018-02-27T22:54:34.319Z,99441.04
2018-02-27T22:57:01.903Z,99430.77
2018-02-27T22:59:29.474Z,99439.15
2018-02-27T23:01:57.041Z,99435.34
2018-02-27T23:04:24.631Z,99451.38
2018-02-27T23:06:52.210Z,99468.19
2018-02-27T23:09:19.815Z,99482.45
2018-02-27T23:11:47.384Z,99472.33
2018-02-27T23:14:14.951Z,99480.73
2018-02-27T23:16:42.532Z,99477.02
2018-02-27T23:19:10.100Z,99460.37
2018-02-27T23:21:37.715Z,99457.22
2018-02-27T23:24:08.942Z,99464.42
2018-02-27T23:26:40.800Z,99489.53
2018-02-27T23:29:09.166Z,99475.73
2018-02-27T23:31:37.968Z,99451.86
2018-02-27T23:34:19.114Z,99450.17
2018-02-27T23:36:46.685Z,99458.30
2018-02-27T23:39:14.260Z,99460.36
2018-02-27T23:41:41.819Z,99446.22
2018-02-27T23:44:09.395Z,99451.81
2018-02-27T23:46:36.954Z,99452.50
2018-02-27T23:49:04.578Z,99457.08
2018-02-27T23:51:32.155Z,99467.27
2018-02-27T23:53:59.734Z,99480.03
2018-02-27T23:56:27.311Z,99494.42
2018-02-27T23:58:54.887Z,99487.80
